Time;durP1;ratioP1;P1;durP2;ratioP2;P2;SDS_P1;SDS_P2;PMS_P1;PMS_P2;Temp;Humidity;BMP_temperature;BMP_pressure;BME280_temperature;BME280_humidity;BME280_pressure;Samples;Min_cycle;Max_cycle;Signal;HPM_P1;HPM_P2
2023/04/14 00:02:12;;;;;;;8.13;2.97;;;;;;;;;;5012322;28;20053;-64
2023/04/14 00:04:37;;;;;;;7.72;3.20;;;;;;;;;;5012372;28;20040;-64
2023/04/14 00:07:02;;;;;;;8.75;3.13;;;;;;;;;;5010182;28;20032;-65
2023/04/14 00:09:28;;;;;;;7.97;3.00;;;;;;;;;;5012645;28;20037;-64
2023/04/14 00:11:56;;;;;;;10.02;3.03;;;;;;;;;;5026159;28;20040;-64
2023/04/14 00:14:21;;;;;;;7.65;3.00;;;;;;;;;;5022254;28;20097;-64
2023/04/14 00:16:47;;;;;;;8.98;3.05;;;;;;;;;;5023831;28;20124;-64
2023/04/14 00:19:13;;;;;;;11.18;3.35;;;;;;;;;;5011910;28;20025;-64
2023/04/14 00:21:38;;;;;;;8.73;3.20;;;;;;;;;;5025280;28;20022;-63
2023/04/14 00:24:04;;;;;;;8.18;2.90;;;;;;;;;;5025723;28;20026;-64
2023/04/14 00:26:30;;;;;;;8.07;3.05;;;;;;;;;;5024268;28;20036;-64
2023/04/14 00:28:56;;;;;;;10.10;2.80;;;;;;;;;;5020028;28;20057;-63
2023/04/14 00:31:21;;;;;;;7.30;3.10;;;;;;;;;;5023332;28;20064;-65
2023/04/14 00:33:47;;;;;;;7.35;2.92;;;;;;;;;;5019246;28;20026;-65
2023/04/14 00:36:12;;;;;;;9.68;3.30;;;;;;;;;;5016398;28;20045;-63
2023/04/14 00:38:38;;;;;;;11.98;3.45;;;;;;;;;;5014237;28;20487;-64
2023/04/14 00:41:04;;;;;;;8.73;3.40;;;;;;;;;;5024012;28;20076;-64
2023/04/14 00:43:29;;;;;;;8.20;3.58;;;;;;;;;;5010811;28;20492;-64
2023/04/14 00:45:54;;;;;;;11.95;3.30;;;;;;;;;;5018403;28;20471;-65
2023/04/14 00:48:20;;;;;;;10.55;3.70;;;;;;;;;;5011438;28;20121;-64
2023/04/14 00:50:46;;;;;;;10.55;3.78;;;;;;;;;;5016185;28;20037;-64
2023/04/14 00:53:12;;;;;;;10.60;3.45;;;;;;;;;;5035011;28;20175;-63
2023/04/14 00:55:39;;;;;;;10.35;3.20;;;;;;;;;;5023973;28;20119;-65
2023/04/14 00:58:04;;;;;;;7.75;3.20;;;;;;;;;;5030365;28;20476;-65
2023/04/14 01:00:32;;;;;;;9.40;3.20;;;;;;;;;;5032835;28;20171;-64
2023/04/14 01:02:58;;;;;;;11.93;3.75;;;;;;;;;;5019239;28;20042;-63
2023/04/14 01:05:23;;;;;;;12.18;3.78;;;;;;;;;;5015268;28;20037;-64
2023/04/14 01:07:49;;;;;;;12.10;3.58;;;;;;;;;;5025563;28;20561;-64
2023/04/14 01:10:14;;;;;;;12.05;3.40;;;;;;;;;;5019916;28;20040;-64
2023/04/14 01:13:07;;;;;;;11.77;3.55;;;;;;;;;;5015075;28;20179;-64
2023/04/14 01:15:42;;;;;;;8.85;3.17;;;;;;;;;;5019937;28;20028;-64
2023/04/14 01:18:25;;;;;;;10.48;3.40;;;;;;;;;;5033715;28;20044;-63
2023/04/14 01:20:55;;;;;;;9.27;3.10;;;;;;;;;;5021232;28;20025;-63
2023/04/14 01:23:25;;;;;;;11.73;3.35;;;;;;;;;;5023960;28;20060;-63
2023/04/14 01:26:05;;;;;;;7.80;3.33;;;;;;;;;;5033228;28;20048;-63
2023/04/14 01:29:02;;;;;;;10.67;3.33;;;;;;;;;;5036497;28;20085;-63
2023/04/14 01:31:46;;;;;;;10.02;3.22;;;;;;;;;;5034172;28;20373;-64
2023/04/14 01:34:28;;;;;;;8.57;3.60;;;;;;;;;;5028920;28;20040;-63
2023/04/14 01:37:03;;;;;;;10.57;3.25;;;;;;;;;;5029237;28;20104;-64
2023/04/14 01:39:34;;;;;;;9.15;3.30;;;;;;;;;;5026072;28;20030;-63
2023/04/14 01:42:02;;;;;;;11.20;3.78;;;;;;;;;;5012925;28;20388;-64
2023/04/14 01:44:30;;;;;;;9.18;3.53;;;;;;;;;;5029928;28;20508;-64
2023/04/14 01:47:04;;;;;;;9.38;3.35;;;;;;;;;;5014020;28;20060;-64
2023/04/14 01:49:32;;;;;;;7.13;3.33;;;;;;;;;;5013501;28;20044;-64
2023/04/14 01:52:00;;;;;;;10.07;3.78;;;;;;;;;;5035815;28;20035;-64
2023/04/14 01:54:27;;;;;;;8.30;3.47;;;;;;;;;;5046163;28;20037;-64
2023/04/14 01:56:53;;;;;;;14.10;4.03;;;;;;;;;;5016725;28;20471;-64
2023/04/14 01:59:20;;;;;;;10.00;3.42;;;;;;;;;;5026382;28;20037;-64
2023/04/14 02:01:49;;;;;;;8.57;3.70;;;;;;;;;;5033916;28;20456;-64
2023/04/14 02:04:16;;;;;;;13.68;4.03;;;;;;;;;;5025439;28;20029;-63
2023/04/14 02:06:42;;;;;;;15.27;5.03;;;;;;;;;;5028996;28;20112;-63
2023/04/14 02:09:11;;;;;;;11.75;4.25;;;;;;;;;;5013458;28;20540;-64
2023/04/14 02:11:37;;;;;;;12.20;4.55;;;;;;;;;;5019132;28;20501;-64
2023/04/14 02:14:04;;;;;;;10.52;3.72;;;;;;;;;;5024346;28;20040;-64
2023/04/14 02:16:30;;;;;;;14.38;4.28;;;;;;;;;;5027588;28;20034;-64
2023/04/14 02:18:57;;;;;;;8.60;3.42;;;;;;;;;;5013500;28;20524;-64
2023/04/14 02:21:25;;;;;;;11.10;3.67;;;;;;;;;;5013983;28;20022;-64
2023/04/14 02:23:51;;;;;;;11.70;3.60;;;;;;;;;;5012596;28;20022;-64
2023/04/14 02:26:21;;;;;;;10.52;3.90;;;;;;;;;;5013469;28;20033;-64
2023/04/14 02:29:11;;;;;;;9.23;3.75;;;;;;;;;;5024124;28;20034;-63
2023/04/14 02:31:42;;;;;;;11.20;4.13;;;;;;;;;;5013966;28;20038;-64
2023/04/14 02:34:10;;;;;;;8.63;3.50;;;;;;;;;;5026964;28;20073;-64
2023/04/14 02:36:43;;;;;;;12.60;4.45;;;;;;;;;;5012667;28;20046;-63
2023/04/14 02:39:18;;;;;;;10.35;3.78;;;;;;;;;;5012734;28;20030;-63
2023/04/14 02:41:44;;;;;;;11.43;3.70;;;;;;;;;;5012588;28;20468;-64
2023/04/14 02:44:20;;;;;;;12.32;4.20;;;;;;;;;;5015945;28;20622;-64
2023/04/14 02:46:54;;;;;;;10.13;3.65;;;;;;;;;;5030770;28;20079;-63
2023/04/14 02:49:21;;;;;;;11.13;3.85;;;;;;;;;;5013913;28;20045;-63
2023/04/14 02:51:47;;;;;;;8.43;3.55;;;;;;;;;;5032132;28;20127;-63
2023/04/14 02:54:15;;;;;;;8.10;3.67;;;;;;;;;;5015852;28;20043;-63
2023/04/14 02:56:41;;;;;;;8.90;4.18;;;;;;;;;;5013079;28;20353;-64
2023/04/14 02:59:07;;;;;;;10.32;3.97;;;;;;;;;;5026418;28;20052;-65
2023/04/14 03:01:33;;;;;;;9.60;3.47;;;;;;;;;;5012575;28;20038;-65
2023/04/14 03:03:59;;;;;;;11.60;3.72;;;;;;;;;;5024112;28;20033;-64
2023/04/14 03:06:26;;;;;;;9.85;3.65;;;;;;;;;;5013023;28;20047;-64
2023/04/14 03:08:54;;;;;;;8.25;3.85;;;;;;;;;;5012046;28;20048;-64
2023/04/14 03:11:21;;;;;;;9.15;3.80;;;;;;;;;;5017969;28;20116;-64
2023/04/14 03:13:51;;;;;;;9.82;3.70;;;;;;;;;;5029230;28;20428;-64
2023/04/14 03:16:20;;;;;;;11.27;3.63;;;;;;;;;;5023999;28;20033;-63
2023/04/14 03:18:47;;;;;;;9.60;3.60;;;;;;;;;;5018364;28;20414;-65
2023/04/14 03:21:15;;;;;;;7.60;3.47;;;;;;;;;;5029022;28;20052;-64
2023/04/14 03:23:41;;;;;;;8.15;3.25;;;;;;;;;;5029394;28;20464;-64
2023/04/14 03:26:08;;;;;;;6.82;3.58;;;;;;;;;;5028388;28;20037;-63
2023/04/14 03:28:35;;;;;;;9.32;3.60;;;;;;;;;;5022468;28;20030;-63
2023/04/14 03:31:03;;;;;;;8.82;3.60;;;;;;;;;;5015047;28;20053;-63
2023/04/14 03:33:31;;;;;;;10.00;3.30;;;;;;;;;;5027469;28;20472;-63
2023/04/14 03:35:58;;;;;;;9.50;3.28;;;;;;;;;;5018604;28;20045;-63
2023/04/14 03:38:26;;;;;;;11.32;3.90;;;;;;;;;;5012716;28;20433;-64
2023/04/14 03:40:53;;;;;;;9.57;3.60;;;;;;;;;;5012448;28;20029;-62
2023/04/14 03:43:21;;;;;;;10.30;4.18;;;;;;;;;;5012861;28;20051;-64
2023/04/14 03:45:48;;;;;;;10.98;3.50;;;;;;;;;;5027576;28;20103;-64
2023/04/14 03:48:17;;;;;;;13.85;3.88;;;;;;;;;;5022942;28;20041;-63
2023/04/14 03:50:45;;;;;;;9.23;3.50;;;;;;;;;;5031463;28;20555;-63
2023/04/14 03:53:13;;;;;;;9.05;3.80;;;;;;;;;;5015991;28;20041;-63
2023/04/14 03:55:41;;;;;;;10.00;3.40;;;;;;;;;;5012852;28;20408;-63
2023/04/14 03:58:07;;;;;;;10.38;3.47;;;;;;;;;;5011194;28;20029;-63
2023/04/14 04:00:34;;;;;;;11.23;3.63;;;;;;;;;;5023039;28;20033;-63
2023/04/14 04:03:00;;;;;;;6.95;3.38;;;;;;;;;;5025164;28;20033;-63
2023/04/14 04:05:26;;;;;;;10.82;3.65;;;;;;;;;;5014851;28;20526;-64
2023/04/14 04:07:52;;;;;;;7.47;3.28;;;;;;;;;;5012781;28;20048;-63
2023/04/14 04:10:20;;;;;;;8.70;3.40;;;;;;;;;;5015375;28;20121;-63
2023/04/14 04:12:47;;;;;;;9.85;3.53;;;;;;;;;;5012243;28;20040;-63
2023/04/14 04:15:13;;;;;;;12.63;3.78;;;;;;;;;;5022910;28;20040;-63
2023/04/14 04:17:42;;;;;;;9.07;3.50;;;;;;;;;;5026719;28;20033;-63
2023/04/14 04:20:11;;;;;;;6.05;2.85;;;;;;;;;;5011322;28;20040;-63
2023/04/14 04:22:40;;;;;;;8.00;3.42;;;;;;;;;;5012046;28;20034;-63
2023/04/14 04:25:08;;;;;;;7.00;3.10;;;;;;;;;;5010804;28;20129;-63
2023/04/14 04:27:34;;;;;;;9.50;3.58;;;;;;;;;;5021147;28;20029;-63
2023/04/14 04:30:00;;;;;;;5.40;2.75;;;;;;;;;;5021183;28;20029;-63
2023/04/14 04:32:26;;;;;;;6.82;3.25;;;;;;;;;;5024195;28;20116;-64
2023/04/14 04:34:52;;;;;;;9.73;3.20;;;;;;;;;;5014743;28;20061;-63
2023/04/14 04:37:20;;;;;;;10.63;3.83;;;;;;;;;;5018564;28;20029;-63
2023/04/14 04:39:49;;;;;;;9.93;3.25;;;;;;;;;;5024530;28;20033;-63
2023/04/14 04:42:15;;;;;;;9.15;3.22;;;;;;;;;;5009563;28;20120;-63
2023/04/14 04:44:40;;;;;;;12.82;3.45;;;;;;;;;;5011630;28;20172;-63
2023/04/14 04:47:06;;;;;;;7.07;3.15;;;;;;;;;;5008761;28;20034;-63
2023/04/14 04:49:32;;;;;;;9.63;3.42;;;;;;;;;;5026804;28;20030;-64
2023/04/14 04:51:58;;;;;;;9.00;3.83;;;;;;;;;;5011392;28;20061;-64
2023/04/14 04:54:24;;;;;;;8.15;3.33;;;;;;;;;;5026617;28;20033;-64
2023/04/14 04:56:49;;;;;;;8.82;3.60;;;;;;;;;;5031451;28;20026;-64
2023/04/14 04:59:15;;;;;;;10.68;3.70;;;;;;;;;;5029796;28;20042;-64
2023/04/14 05:01:40;;;;;;;11.45;4.07;;;;;;;;;;5031494;28;20456;-65
2023/04/14 05:04:06;;;;;;;9.25;4.43;;;;;;;;;;5030047;28;20087;-64
2023/04/14 05:06:35;;;;;;;11.93;4.10;;;;;;;;;;5031812;28;20033;-63
2023/04/14 05:09:01;;;;;;;9.65;4.18;;;;;;;;;;5028661;28;20144;-64
2023/04/14 05:11:26;;;;;;;10.75;3.80;;;;;;;;;;5030998;28;20065;-64
2023/04/14 05:13:52;;;;;;;9.20;3.67;;;;;;;;;;5026759;28;20076;-64
2023/04/14 05:16:18;;;;;;;14.73;4.05;;;;;;;;;;5025962;28;20092;-64
2023/04/14 05:18:43;;;;;;;11.77;4.03;;;;;;;;;;5022766;28;20034;-63
2023/04/14 05:21:11;;;;;;;10.25;3.65;;;;;;;;;;5027965;28;20041;-63
2023/04/14 05:23:38;;;;;;;9.00;3.92;;;;;;;;;;5011810;28;20044;-64
2023/04/14 05:26:05;;;;;;;10.40;4.00;;;;;;;;;;5010684;28;20032;-63
2023/04/14 05:28:31;;;;;;;10.38;3.95;;;;;;;;;;5030512;28;20029;-63
2023/04/14 05:30:56;;;;;;;12.27;4.32;;;;;;;;;;5031092;28;20032;-64
2023/04/14 05:33:21;;;;;;;13.45;4.47;;;;;;;;;;5026577;28;20042;-63
2023/04/14 05:35:49;;;;;;;13.07;4.90;;;;;;;;;;5025143;28;20052;-63
2023/04/14 05:38:15;;;;;;;8.68;3.85;;;;;;;;;;5030860;28;20057;-63
2023/04/14 05:40:41;;;;;;;11.80;3.78;;;;;;;;;;5033927;28;20037;-70
2023/04/14 05:43:06;;;;;;;11.02;4.38;;;;;;;;;;5035976;28;20043;-70
2023/04/14 05:45:32;;;;;;;9.20;3.97;;;;;;;;;;5025896;28;20419;-70
2023/04/14 05:47:57;;;;;;;10.30;4.00;;;;;;;;;;5016467;28;20064;-68
2023/04/14 05:50:22;;;;;;;9.07;4.07;;;;;;;;;;5032512;28;20483;-69
2023/04/14 05:52:48;;;;;;;10.88;4.50;;;;;;;;;;5035962;28;20444;-69
2023/04/14 05:55:14;;;;;;;11.10;4.05;;;;;;;;;;5016945;28;20184;-72
2023/04/14 05:57:40;;;;;;;9.38;3.92;;;;;;;;;;5015140;28;20041;-68
2023/04/14 06:00:07;;;;;;;11.02;4.25;;;;;;;;;;5027470;28;20468;-68
2023/04/14 06:02:32;;;;;;;10.40;4.00;;;;;;;;;;5033435;28;20037;-71
2023/04/14 06:05:00;;;;;;;13.20;4.68;;;;;;;;;;5027862;28;20396;-69
2023/04/14 06:07:26;;;;;;;12.20;4.82;;;;;;;;;;5027200;28;20037;-68
2023/04/14 06:09:52;;;;;;;12.80;4.65;;;;;;;;;;5034506;28;20041;-69
2023/04/14 06:12:18;;;;;;;14.75;5.35;;;;;;;;;;5033268;28;20041;-70
2023/04/14 06:14:44;;;;;;;10.68;4.97;;;;;;;;;;5020706;28;20092;-70
2023/04/14 06:17:09;;;;;;;14.95;5.05;;;;;;;;;;5013756;28;20030;-68
2023/04/14 06:19:34;;;;;;;12.30;4.88;;;;;;;;;;5017847;28;20033;-70
2023/04/14 06:22:00;;;;;;;13.88;5.03;;;;;;;;;;5014123;28;20034;-68
2023/04/14 06:24:25;;;;;;;9.85;4.35;;;;;;;;;;5031234;28;20068;-69
2023/04/14 06:26:51;;;;;;;10.95;4.32;;;;;;;;;;5031552;28;20032;-68
2023/04/14 06:29:17;;;;;;;13.35;4.53;;;;;;;;;;5012143;28;20062;-69
2023/04/14 06:31:42;;;;;;;10.38;4.50;;;;;;;;;;5017820;28;20037;-70
2023/04/14 06:34:07;;;;;;;14.75;4.68;;;;;;;;;;5027941;28;20037;-70
2023/04/14 06:36:33;;;;;;;12.23;4.53;;;;;;;;;;5032543;28;20045;-68
2023/04/14 06:38:59;;;;;;;12.63;5.18;;;;;;;;;;5031562;28;20026;-70
2023/04/14 06:41:25;;;;;;;9.40;4.50;;;;;;;;;;5029147;28;20033;-70
2023/04/14 06:43:50;;;;;;;9.98;4.72;;;;;;;;;;5038131;28;20025;-70
2023/04/14 06:46:16;;;;;;;9.98;3.75;;;;;;;;;;5030431;28;20468;-70
2023/04/14 06:48:42;;;;;;;11.77;4.25;;;;;;;;;;5028112;28;20030;-71
2023/04/14 06:51:09;;;;;;;6.68;3.92;;;;;;;;;;5026621;28;20036;-69
2023/04/14 06:53:35;;;;;;;12.18;4.55;;;;;;;;;;5032275;28;20467;-71
2023/04/14 06:56:01;;;;;;;7.70;4.20;;;;;;;;;;5032744;28;20044;-70
2023/04/14 06:58:27;;;;;;;11.23;4.53;;;;;;;;;;5030634;28;20065;-72
2023/04/14 07:00:56;;;;;;;12.65;4.22;;;;;;;;;;5031559;28;20037;-71
2023/04/14 07:03:22;;;;;;;11.30;4.20;;;;;;;;;;5032380;28;20025;-71
2023/04/14 07:05:47;;;;;;;12.07;4.47;;;;;;;;;;5028622;28;20037;-70
2023/04/14 07:08:13;;;;;;;8.68;4.20;;;;;;;;;;5012297;28;20045;-70
2023/04/14 07:10:38;;;;;;;8.95;4.07;;;;;;;;;;5027322;28;20057;-70
2023/04/14 07:13:03;;;;;;;9.50;3.90;;;;;;;;;;5033198;28;20064;-67
2023/04/14 07:15:29;;;;;;;13.32;4.43;;;;;;;;;;5028793;28;20103;-71
2023/04/14 07:17:55;;;;;;;10.30;4.13;;;;;;;;;;5027959;28;20044;-71
2023/04/14 07:20:20;;;;;;;9.25;3.67;;;;;;;;;;5031287;28;20192;-69
2023/04/14 07:22:46;;;;;;;10.38;4.57;;;;;;;;;;5032322;28;20527;-70
2023/04/14 07:25:11;;;;;;;10.63;4.28;;;;;;;;;;5032116;28;20029;-69
2023/04/14 07:27:37;;;;;;;12.98;5.10;;;;;;;;;;5030748;28;20480;-72
2023/04/14 07:30:03;;;;;;;7.45;3.92;;;;;;;;;;5032976;28;20048;-71
2023/04/14 07:32:29;;;;;;;17.45;4.25;;;;;;;;;;5030774;28;20072;-72
2023/04/14 07:34:56;;;;;;;12.40;4.40;;;;;;;;;;5027067;28;20448;-73
2023/04/14 07:37:22;;;;;;;13.35;4.43;;;;;;;;;;5031746;28;20056;-68
2023/04/14 07:39:48;;;;;;;11.32;4.13;;;;;;;;;;5029441;28;20061;-69
2023/04/14 07:42:13;;;;;;;13.07;4.35;;;;;;;;;;5026908;28;20124;-73
2023/04/14 07:44:39;;;;;;;12.50;4.90;;;;;;;;;;5019566;28;20054;-69
2023/04/14 07:47:04;;;;;;;12.50;4.47;;;;;;;;;;5023252;28;20056;-69
2023/04/14 07:49:30;;;;;;;11.70;4.78;;;;;;;;;;5031696;28;20045;-71
2023/04/14 07:51:56;;;;;;;17.88;5.22;;;;;;;;;;5030779;28;20045;-70
2023/04/14 07:54:22;;;;;;;12.93;5.07;;;;;;;;;;5032160;28;20026;-71
2023/04/14 07:56:47;;;;;;;11.15;4.60;;;;;;;;;;5033258;28;20120;-70
2023/04/14 07:59:13;;;;;;;11.38;4.65;;;;;;;;;;5031124;28;20029;-70
2023/04/14 08:01:38;;;;;;;16.20;5.38;;;;;;;;;;5023454;28;20463;-70
2023/04/14 08:04:04;;;;;;;12.05;4.65;;;;;;;;;;5052190;28;20029;-70
2023/04/14 08:06:29;;;;;;;12.65;4.68;;;;;;;;;;5029896;28;20029;-70
2023/04/14 08:08:55;;;;;;;12.75;5.00;;;;;;;;;;5030510;28;20080;-68
2023/04/14 08:11:21;;;;;;;13.10;4.70;;;;;;;;;;5014882;28;20135;-69
2023/04/14 08:13:48;;;;;;;11.38;4.30;;;;;;;;;;5023175;28;20068;-68
2023/04/14 08:16:14;;;;;;;14.55;4.30;;;;;;;;;;5025596;28;20037;-69
2023/04/14 08:18:40;;;;;;;11.77;4.45;;;;;;;;;;5028127;28;20029;-70
2023/04/14 08:21:06;;;;;;;10.82;4.20;;;;;;;;;;5031883;28;20053;-71
2023/04/14 08:23:31;;;;;;;14.80;3.90;;;;;;;;;;5027605;28;20048;-70
2023/04/14 08:25:57;;;;;;;11.32;4.13;;;;;;;;;;5029543;28;20029;-70
2023/04/14 08:28:22;;;;;;;7.60;3.17;;;;;;;;;;5029582;28;20037;-69
2023/04/14 08:30:48;;;;;;;12.48;3.92;;;;;;;;;;5029471;28;20102;-69
2023/04/14 08:33:13;;;;;;;11.98;3.70;;;;;;;;;;5044457;28;20103;-69
2023/04/14 08:35:39;;;;;;;13.52;3.72;;;;;;;;;;5012569;28;20122;-69
2023/04/14 08:38:04;;;;;;;9.88;3.30;;;;;;;;;;5023471;28;20361;-70
2023/04/14 08:40:41;;;;;;;7.97;3.40;;;;;;;;;;5030501;28;20025;-69
2023/04/14 08:43:07;;;;;;;13.65;3.70;;;;;;;;;;5015931;28;20033;-67
2023/04/14 08:45:33;;;;;;;14.00;3.70;;;;;;;;;;5025891;28;20040;-69
2023/04/14 08:48:00;;;;;;;8.30;2.75;;;;;;;;;;5029087;28;20056;-69
2023/04/14 08:50:32;;;;;;;8.65;2.78;;;;;;;;;;5019956;28;20037;-70
2023/04/14 08:53:00;;;;;;;11.18;3.20;;;;;;;;;;5030607;28;20038;-70
2023/04/14 08:55:27;;;;;;;9.10;2.67;;;;;;;;;;5020715;28;20041;-72
2023/04/14 08:57:53;;;;;;;8.35;2.47;;;;;;;;;;5023109;28;20041;-69
2023/04/14 09:00:19;;;;;;;8.88;2.55;;;;;;;;;;5029818;28;20044;-69
2023/04/14 09:02:45;;;;;;;9.80;2.70;;;;;;;;;;5037110;28;20368;-71
2023/04/14 09:05:12;;;;;;;9.48;2.80;;;;;;;;;;5031132;28;20032;-69
2023/04/14 09:07:38;;;;;;;9.88;3.00;;;;;;;;;;5014661;28;20080;-71
2023/04/14 09:10:04;;;;;;;11.25;2.80;;;;;;;;;;5029327;28;20030;-70
2023/04/14 09:12:30;;;;;;;7.57;2.63;;;;;;;;;;5030066;28;20426;-69
2023/04/14 09:14:58;;;;;;;8.38;2.45;;;;;;;;;;5031455;28;20112;-69
2023/04/14 09:17:28;;;;;;;6.38;2.47;;;;;;;;;;5033843;28;20055;-70
2023/04/14 09:19:54;;;;;;;6.27;2.40;;;;;;;;;;5030758;28;20336;-70
2023/04/14 09:22:21;;;;;;;9.65;2.45;;;;;;;;;;5025782;28;20293;-69
2023/04/14 09:24:47;;;;;;;8.43;2.50;;;;;;;;;;5033463;28;20542;-68
2023/04/14 09:27:12;;;;;;;7.28;2.40;;;;;;;;;;5033949;28;20025;-67
2023/04/14 09:29:40;;;;;;;6.60;2.20;;;;;;;;;;5034906;28;20025;-69
2023/04/14 09:32:06;;;;;;;8.25;2.28;;;;;;;;;;5035640;28;20036;-71
2023/04/14 09:34:31;;;;;;;7.55;2.35;;;;;;;;;;5049836;28;20041;-69
2023/04/14 09:37:05;;;;;;;7.72;2.40;;;;;;;;;;5033585;28;20155;-70
2023/04/14 09:39:31;;;;;;;10.73;2.53;;;;;;;;;;5025121;28;20022;-69
2023/04/14 09:41:58;;;;;;;5.78;2.30;;;;;;;;;;5019906;28;20028;-67
2023/04/14 09:44:23;;;;;;;6.47;2.33;;;;;;;;;;5032076;28;20045;-68
2023/04/14 09:47:04;;;;;;;6.95;2.20;;;;;;;;;;5033658;28;20030;-68
2023/04/14 09:49:30;;;;;;;8.75;2.05;;;;;;;;;;5033818;28;20075;-68
2023/04/14 09:52:03;;;;;;;7.30;1.92;;;;;;;;;;5028885;28;20178;-66
2023/04/14 09:54:28;;;;;;;4.85;1.92;;;;;;;;;;5029566;28;20040;-67
2023/04/14 09:56:53;;;;;;;6.45;1.92;;;;;;;;;;5034554;28;20026;-68
2023/04/14 09:59:36;;;;;;;7.32;2.05;;;;;;;;;;5028266;28;20097;-68
2023/04/14 10:02:07;;;;;;;7.85;2.00;;;;;;;;;;5014823;28;20025;-69
2023/04/14 10:04:33;;;;;;;5.38;1.88;;;;;;;;;;5013856;28;20045;-68
2023/04/14 10:06:59;;;;;;;4.68;1.90;;;;;;;;;;5014668;28;20452;-68
2023/04/14 10:09:28;;;;;;;6.63;2.20;;;;;;;;;;5016441;28;20072;-68
2023/04/14 10:12:14;;;;;;;7.22;1.98;;;;;;;;;;5042209;28;20036;-65
2023/04/14 10:14:41;;;;;;;5.97;2.10;;;;;;;;;;5053722;28;20078;-65
2023/04/14 10:17:06;;;;;;;4.95;2.00;;;;;;;;;;5042885;28;20107;-64
2023/04/14 10:19:33;;;;;;;7.05;2.20;;;;;;;;;;5033047;28;20061;-65
2023/04/14 10:21:59;;;;;;;7.95;2.00;;;;;;;;;;5033904;28;20368;-65
2023/04/14 10:24:25;;;;;;;7.93;2.42;;;;;;;;;;5027691;28;20030;-67
2023/04/14 10:26:51;;;;;;;8.25;1.90;;;;;;;;;;5019325;28;20100;-66
2023/04/14 10:29:17;;;;;;;7.15;2.55;;;;;;;;;;5013728;28;20040;-69
2023/04/14 10:31:47;;;;;;;8.55;2.13;;;;;;;;;;5029987;28;20022;-65
2023/04/14 10:34:14;;;;;;;7.75;2.22;;;;;;;;;;5048492;28;20526;-65
2023/04/14 10:36:41;;;;;;;5.72;2.10;;;;;;;;;;5032938;28;20099;-65
2023/04/14 10:39:09;;;;;;;8.13;2.20;;;;;;;;;;5033824;28;20040;-67
2023/04/14 10:41:48;;;;;;;7.38;2.25;;;;;;;;;;5033580;28;20916;-65
2023/04/14 10:44:33;;;;;;;6.25;2.08;;;;;;;;;;5018957;28;20017;-69
2023/04/14 10:47:01;;;;;;;9.18;2.25;;;;;;;;;;5050462;28;20041;-68
2023/04/14 10:49:33;;;;;;;4.88;2.00;;;;;;;;;;5052690;28;20032;-69
2023/04/14 10:52:21;;;;;;;7.55;2.00;;;;;;;;;;5034042;28;20033;-66
2023/04/14 10:55:00;;;;;;;7.35;2.10;;;;;;;;;;5033436;28;20037;-65
2023/04/14 10:57:27;;;;;;;6.38;1.90;;;;;;;;;;5032578;28;20036;-66
2023/04/14 11:00:13;;;;;;;8.77;2.40;;;;;;;;;;5033079;28;20087;-67
2023/04/14 11:02:53;;;;;;;7.07;2.17;;;;;;;;;;5012419;28;20037;-68
2023/04/14 11:05:19;;;;;;;5.30;2.10;;;;;;;;;;5012722;28;20041;-66
2023/04/14 11:07:54;;;;;;;7.80;1.98;;;;;;;;;;5020504;28;20033;-67
2023/04/14 11:10:23;;;;;;;5.68;2.03;;;;;;;;;;5032561;28;20036;-65
2023/04/14 11:12:55;;;;;;;5.40;2.00;;;;;;;;;;5033002;28;20033;-67
2023/04/14 11:15:21;;;;;;;5.38;2.10;;;;;;;;;;5030985;28;20422;-65
2023/04/14 11:17:46;;;;;;;7.15;2.10;;;;;;;;;;5032819;28;20079;-66
2023/04/14 11:20:21;;;;;;;6.00;2.15;;;;;;;;;;5032943;28;20040;-66
2023/04/14 11:22:49;;;;;;;6.03;1.92;;;;;;;;;;5032664;28;20025;-65
2023/04/14 11:25:17;;;;;;;6.03;1.90;;;;;;;;;;5031807;28;20140;-67
2023/04/14 11:27:44;;;;;;;11.52;2.22;;;;;;;;;;5031989;28;20045;-70
2023/04/14 11:30:20;;;;;;;7.00;2.03;;;;;;;;;;5032459;28;20037;-69
2023/04/14 11:32:58;;;;;;;7.38;2.22;;;;;;;;;;5032489;28;20083;-67
2023/04/14 11:35:25;;;;;;;6.25;2.03;;;;;;;;;;5021881;28;20184;-67
2023/04/14 11:37:58;;;;;;;5.72;2.00;;;;;;;;;;5016417;28;20029;-69
2023/04/14 11:40:26;;;;;;;5.82;2.00;;;;;;;;;;5015197;28;20064;-67
2023/04/14 11:42:54;;;;;;;5.70;1.80;;;;;;;;;;5016070;28;20034;-67
2023/04/14 11:45:20;;;;;;;9.35;2.15;;;;;;;;;;5015649;28;20049;-65
2023/04/14 11:47:56;;;;;;;6.38;2.10;;;;;;;;;;5029233;28;20091;-67
2023/04/14 11:50:21;;;;;;;7.88;2.20;;;;;;;;;;5018421;28;20385;-66
2023/04/14 11:52:47;;;;;;;5.68;1.95;;;;;;;;;;5016364;28;20088;-69
2023/04/14 11:55:13;;;;;;;7.75;2.00;;;;;;;;;;5022731;28;20055;-68
2023/04/14 11:57:45;;;;;;;5.07;1.75;;;;;;;;;;5019488;28;20483;-68
2023/04/14 12:00:12;;;;;;;5.32;1.60;;;;;;;;;;5046412;28;20028;-67
2023/04/14 12:02:41;;;;;;;7.32;2.15;;;;;;;;;;5040191;28;20039;-68
2023/04/14 12:05:07;;;;;;;7.05;2.08;;;;;;;;;;5051871;28;20104;-67
2023/04/14 12:07:34;;;;;;;8.15;2.00;;;;;;;;;;5050680;28;20447;-69
2023/04/14 12:09:59;;;;;;;6.88;2.00;;;;;;;;;;5051936;28;20115;-69
2023/04/14 12:12:27;;;;;;;5.30;1.75;;;;;;;;;;5050987;28;20119;-67
2023/04/14 12:14:53;;;;;;;5.28;1.90;;;;;;;;;;5048364;28;20033;-67
2023/04/14 12:17:20;;;;;;;4.70;1.65;;;;;;;;;;5011946;28;20511;-69
2023/04/14 12:19:45;;;;;;;9.65;2.10;;;;;;;;;;5013959;28;20104;-68
2023/04/14 12:22:11;;;;;;;6.35;1.90;;;;;;;;;;5010816;28;20034;-69
2023/04/14 12:24:39;;;;;;;6.43;1.90;;;;;;;;;;5010028;28;20022;-69
2023/04/14 12:27:05;;;;;;;4.70;1.88;;;;;;;;;;5010737;28;20076;-68
2023/04/14 12:29:37;;;;;;;5.35;1.90;;;;;;;;;;5011263;28;20049;-68
2023/04/14 12:32:14;;;;;;;7.18;2.10;;;;;;;;;;5021041;28;20037;-68
2023/04/14 12:34:39;;;;;;;5.30;1.90;;;;;;;;;;5026323;28;20041;-68
2023/04/14 12:37:09;;;;;;;9.18;2.47;;;;;;;;;;5016490;28;20053;-68
2023/04/14 12:39:53;;;;;;;6.03;2.03;;;;;;;;;;5029712;28;20029;-68
2023/04/14 12:42:18;;;;;;;4.80;2.08;;;;;;;;;;5029850;28;20034;-68
2023/04/14 12:45:15;;;;;;;6.93;2.35;;;;;;;;;;5031021;28;20036;-68
2023/04/14 12:47:40;;;;;;;6.97;2.03;;;;;;;;;;5014214;28;20045;-69
2023/04/14 12:50:29;;;;;;;7.40;1.85;;;;;;;;;;5019130;28;20396;-68
2023/04/14 12:52:55;;;;;;;6.55;2.05;;;;;;;;;;5032668;28;20112;-67
2023/04/14 12:55:29;;;;;;;6.53;2.40;;;;;;;;;;5028416;28;20029;-67
2023/04/14 12:57:55;;;;;;;6.28;1.90;;;;;;;;;;5035433;28;20471;-69
2023/04/14 13:00:22;;;;;;;7.25;2.08;;;;;;;;;;5023907;28;20053;-67
2023/04/14 13:02:49;;;;;;;4.57;1.80;;;;;;;;;;5029321;28;20415;-69
2023/04/14 13:05:15;;;;;;;7.57;2.30;;;;;;;;;;5020591;28;20041;-68
2023/04/14 13:07:41;;;;;;;5.30;1.95;;;;;;;;;;5032291;28;20030;-68
2023/04/14 13:10:07;;;;;;;6.80;2.03;;;;;;;;;;5028305;28;20524;-69
2023/04/14 13:12:33;;;;;;;4.32;1.80;;;;;;;;;;5034458;28;20100;-66
2023/04/14 13:14:59;;;;;;;5.60;1.75;;;;;;;;;;5036117;28;20110;-67
2023/04/14 13:17:26;;;;;;;6.80;2.10;;;;;;;;;;5021541;28;20034;-68
2023/04/14 13:19:52;;;;;;;5.25;1.75;;;;;;;;;;5030908;28;20356;-68
2023/04/14 13:22:18;;;;;;;5.03;1.75;;;;;;;;;;5043472;28;20088;-68
2023/04/14 13:24:44;;;;;;;4.78;1.80;;;;;;;;;;5031070;28;20463;-68
2023/04/14 13:27:10;;;;;;;7.10;1.65;;;;;;;;;;5034338;28;20029;-67
2023/04/14 13:29:39;;;;;;;4.90;1.58;;;;;;;;;;5034006;28;20033;-67
2023/04/14 13:32:09;;;;;;;4.95;1.80;;;;;;;;;;5019935;28;20555;-67
2023/04/14 13:34:36;;;;;;;4.18;1.70;;;;;;;;;;5043940;28;20037;-69
2023/04/14 13:37:02;;;;;;;5.78;2.15;;;;;;;;;;5033823;28;20077;-68
2023/04/14 13:39:27;;;;;;;4.68;1.88;;;;;;;;;;5045705;28;20075;-65
2023/04/14 13:41:53;;;;;;;6.40;1.90;;;;;;;;;;5032032;28;20463;-68
2023/04/14 13:44:19;;;;;;;5.18;2.20;;;;;;;;;;5023438;28;20025;-69
2023/04/14 13:46:44;;;;;;;7.35;2.05;;;;;;;;;;5032664;28;20083;-66
2023/04/14 13:49:11;;;;;;;5.90;1.83;;;;;;;;;;5033208;28;20396;-67
2023/04/14 13:51:38;;;;;;;6.25;1.90;;;;;;;;;;5034295;28;20065;-67
2023/04/14 13:54:04;;;;;;;6.65;1.88;;;;;;;;;;5033812;28;20052;-69
2023/04/14 13:56:30;;;;;;;5.72;2.10;;;;;;;;;;5034436;28;20037;-65
2023/04/14 13:58:56;;;;;;;5.35;2.00;;;;;;;;;;5017019;28;20392;-68
2023/04/14 14:01:21;;;;;;;7.68;2.22;;;;;;;;;;5023709;28;20120;-68
2023/04/14 14:03:48;;;;;;;7.10;2.22;;;;;;;;;;5033580;28;20155;-66
2023/04/14 14:06:14;;;;;;;6.43;2.05;;;;;;;;;;5034227;28;20112;-67
2023/04/14 14:08:40;;;;;;;6.65;2.38;;;;;;;;;;5033573;28;20120;-67
2023/04/14 14:11:10;;;;;;;5.05;2.00;;;;;;;;;;5040501;28;20076;-68
2023/04/14 14:13:40;;;;;;;9.02;2.72;;;;;;;;;;5012604;28;20030;-66
2023/04/14 14:16:07;;;;;;;5.30;2.05;;;;;;;;;;5032586;28;20037;-67
2023/04/14 14:18:34;;;;;;;6.30;2.25;;;;;;;;;;5028431;28;20048;-65
2023/04/14 14:21:00;;;;;;;6.10;1.83;;;;;;;;;;5032241;28;20037;-67
2023/04/14 14:23:25;;;;;;;5.32;2.10;;;;;;;;;;5033061;28;20037;-67
2023/04/14 14:25:52;;;;;;;4.22;1.77;;;;;;;;;;5030628;28;20598;-68
2023/04/14 14:28:17;;;;;;;6.88;2.10;;;;;;;;;;5015493;28;20030;-67
2023/04/14 14:30:42;;;;;;;7.05;1.75;;;;;;;;;;5017026;28;20047;-67
2023/04/14 14:33:08;;;;;;;4.55;1.63;;;;;;;;;;5031463;28;20029;-69
2023/04/14 14:35:33;;;;;;;5.10;1.80;;;;;;;;;;5028682;28;20045;-66
2023/04/14 14:37:59;;;;;;;4.82;1.65;;;;;;;;;;5012433;28;20384;-69
2023/04/14 14:40:24;;;;;;;7.40;2.00;;;;;;;;;;5013903;28;20034;-67
2023/04/14 14:42:50;;;;;;;6.72;2.10;;;;;;;;;;5044630;28;20261;-70